Rechercher aéroport 
image banner adimage banner adimage banner ad
image banner ad

0PS4 - Old Orchard

Situé à Curwensville, United States

ICAO - 0PS4, IATA -

Données fournies par Airmate  

Information générale

Coordonnées: N41°0'30" W78°33'39"
Élévation : 1980 feet MSL.
Variation magnétique : -09° East
Voir autres Aéroports à Pennsylvania

Données opérationnelles

Special qualification required
Heure actuelle UTC:
Heure actuelle locale:
Météo à : KFIG - Clearfield-Lawrence ( 13 km )
METAR: KFIG 152154Z AUTO 31009KT 10SM CLR 22/11 A2989 RMK AO2 SLP115 T02220106
Voir NOTAMs / SUP AIP / TFR affectant cet aéroport [VIEW]
Fréquences de communication: [VIEW]

Pistes:

Identifiant RWYQFULongueur (ft)Largeur (ft)SurfaceLDA (ft)
062400100GRASS
242400100GRASS

Coordonnées de l'aéroport

Adresse: Curwensville United States

Vue satellite de 0PS4